Time;durP1;ratioP1;P1;durP2;ratioP2;P2;SDS_P1;SDS_P2;PMS_P1;PMS_P2;Temp;Humidity;BMP_temperature;BMP_pressure;BME280_temperature;BME280_humidity;BME280_pressure;Samples;Min_cycle;Max_cycle;Signal;HPM_P1;HPM_P2
2022/03/18 00:00:56;;;;;;;39.40;15.85;;;5.10;99.90;;;;;;5059835;28;20093;-65
2022/03/18 00:03:22;;;;;;;37.13;16.52;;;5.10;99.90;;;;;;5076772;28;20135;-64
2022/03/18 00:05:48;;;;;;;30.38;12.52;;;5.10;99.90;;;;;;5059695;28;20304;-64
2022/03/18 00:08:14;;;;;;;22.85;10.63;;;5.10;99.90;;;;;;5077184;28;20107;-64
2022/03/18 00:10:40;;;;;;;23.42;11.10;;;5.20;99.90;;;;;;5059871;28;20071;-64
2022/03/18 00:13:06;;;;;;;19.75;9.77;;;5.10;99.90;;;;;;5076750;28;20075;-64
2022/03/18 00:15:32;;;;;;;24.58;11.10;;;5.10;99.90;;;;;;5077125;28;20120;-64
2022/03/18 00:17:58;;;;;;;21.95;10.32;;;5.10;99.90;;;;;;5076264;28;20060;-64
2022/03/18 00:20:25;;;;;;;21.90;9.57;;;5.00;99.90;;;;;;5076184;28;20070;-63
2022/03/18 00:22:51;;;;;;;21.25;9.32;;;4.90;99.90;;;;;;5076984;28;20300;-63
2022/03/18 00:25:18;;;;;;;17.70;8.90;;;4.80;99.90;;;;;;5076933;28;20144;-64
2022/03/18 00:27:45;;;;;;;15.85;8.00;;;4.90;99.90;;;;;;5076173;28;20043;-64
2022/03/18 00:30:16;;;;;;;19.25;8.15;;;4.90;99.90;;;;;;5076862;28;20036;-64
2022/03/18 00:32:43;;;;;;;21.55;8.90;;;4.90;99.90;;;;;;5077321;28;20269;-63
2022/03/18 00:35:10;;;;;;;14.05;7.38;;;4.90;99.90;;;;;;5076066;28;20129;-64
2022/03/18 00:37:40;;;;;;;16.95;8.27;;;4.80;99.90;;;;;;5076770;28;20281;-64
2022/03/18 00:40:07;;;;;;;17.63;7.18;;;4.70;99.90;;;;;;5076026;28;20052;-64
2022/03/18 00:42:33;;;;;;;16.50;7.20;;;4.70;99.90;;;;;;5075731;28;20032;-64
2022/03/18 00:45:00;;;;;;;14.45;6.25;;;4.70;99.90;;;;;;5059339;28;20028;-64
2022/03/18 00:52:55;;;;;;;12.93;6.80;;;4.90;99.90;;;;;;5076691;28;20067;-64
2022/03/18 00:55:21;;;;;;;12.27;6.70;;;4.90;99.90;;;;;;5059226;28;20058;-64
2022/03/18 00:57:47;;;;;;;13.50;6.32;;;4.80;99.90;;;;;;5075910;28;20032;-64
2022/03/18 01:00:13;;;;;;;12.50;6.50;;;4.70;99.90;;;;;;5075904;28;20044;-64
2022/03/18 01:02:39;;;;;;;12.85;6.30;;;4.70;99.90;;;;;;5077005;28;20119;-65
2022/03/18 01:05:05;;;;;;;10.63;6.13;;;4.60;99.90;;;;;;5076472;28;20166;-64
2022/03/18 01:07:31;;;;;;;11.70;6.03;;;4.60;99.90;;;;;;5076184;28;20062;-64
2022/03/18 01:09:57;;;;;;;14.85;7.00;;;4.60;99.90;;;;;;5076907;28;20111;-64
2022/03/18 01:12:24;;;;;;;12.07;6.22;;;4.60;99.90;;;;;;5076282;28;20033;-63
2022/03/18 01:14:50;;;;;;;13.07;5.75;;;4.80;99.90;;;;;;5075708;28;20136;-64
2022/03/18 01:17:16;;;;;;;10.30;6.00;;;4.70;99.90;;;;;;5075733;28;20072;-65
2022/03/18 01:19:42;;;;;;;13.25;6.55;;;4.70;99.90;;;;;;5075593;28;20114;-64
2022/03/18 01:22:09;;;;;;;15.57;6.28;;;4.60;99.90;;;;;;5059002;28;20047;-64
2022/03/18 01:24:38;;;;;;;12.68;6.15;;;4.70;99.90;;;;;;5076294;28;20060;-65
2022/03/18 01:27:05;;;;;;;13.48;6.95;;;4.70;99.90;;;;;;5058881;28;20277;-64
2022/03/18 01:29:31;;;;;;;15.05;6.13;;;4.70;99.90;;;;;;5075578;28;20024;-64
2022/03/18 01:31:57;;;;;;;12.73;6.95;;;4.70;99.90;;;;;;5075520;28;20063;-65
2022/03/18 01:34:23;;;;;;;14.65;5.90;;;4.70;99.90;;;;;;5075613;28;20339;-65
2022/03/18 01:36:49;;;;;;;12.27;6.03;;;4.60;99.90;;;;;;5042332;28;20028;-66
2022/03/18 01:39:16;;;;;;;9.93;6.13;;;4.60;99.90;;;;;;5058812;28;20045;-65
2022/03/18 01:41:42;;;;;;;12.93;6.32;;;4.60;99.90;;;;;;5075607;28;20089;-65
2022/03/18 01:44:12;;;;;;;12.82;6.30;;;4.60;99.90;;;;;;5076251;28;20024;-65
2022/03/18 01:46:39;;;;;;;12.68;6.40;;;4.50;99.90;;;;;;5075605;28;20416;-65
2022/03/18 01:49:08;;;;;;;12.18;6.22;;;4.70;99.90;;;;;;5076128;28;20354;-65
2022/03/18 01:51:34;;;;;;;12.10;6.78;;;4.60;99.90;;;;;;5075289;28;20127;-65
2022/03/18 01:56:45;;;;;;;13.98;6.43;;;4.50;99.90;;;;;;5080363;28;20292;-64
2022/03/18 01:59:15;;;;;;;8.68;5.78;;;4.50;99.90;;;;;;5078907;28;20100;-65
2022/03/18 02:01:40;;;;;;;11.07;6.35;;;4.50;99.90;;;;;;5078875;28;20128;-64
2022/03/18 02:04:06;;;;;;;10.70;6.15;;;4.50;99.90;;;;;;5078810;28;20064;-65
2022/03/18 02:06:33;;;;;;;16.45;6.57;;;4.40;99.90;;;;;;5079572;28;20029;-65
2022/03/18 02:08:58;;;;;;;10.77;6.50;;;4.40;99.90;;;;;;5062140;28;20032;-65
2022/03/18 02:11:26;;;;;;;9.68;5.80;;;4.30;99.90;;;;;;5079405;28;20036;-64
2022/03/18 02:13:56;;;;;;;13.93;6.65;;;4.40;99.90;;;;;;5079343;28;20021;-64
2022/03/18 02:16:22;;;;;;;10.00;5.85;;;4.40;99.90;;;;;;5078676;28;20075;-63
2022/03/18 02:18:48;;;;;;;14.65;6.90;;;4.40;99.90;;;;;;5078627;28;20392;-64
2022/03/18 02:21:15;;;;;;;12.85;6.25;;;4.30;99.90;;;;;;5078529;28;20040;-64
2022/03/18 02:23:43;;;;;;;10.68;6.22;;;4.40;99.90;;;;;;5045516;28;20133;-63
2022/03/18 02:26:13;;;;;;;10.52;5.88;;;4.30;99.90;;;;;;5079139;28;20304;-65
2022/03/18 02:28:39;;;;;;;12.00;6.28;;;4.20;99.90;;;;;;5061726;28;20024;-65
2022/03/18 02:31:05;;;;;;;14.88;6.43;;;4.20;99.90;;;;;;5061821;28;20045;-65
2022/03/18 02:33:31;;;;;;;8.68;6.00;;;4.10;99.90;;;;;;5079138;28;20026;-65
2022/03/18 02:35:56;;;;;;;12.77;6.85;;;4.20;99.90;;;;;;5078229;28;20050;-65
2022/03/18 02:38:23;;;;;;;14.70;7.03;;;4.20;99.90;;;;;;5078997;28;20056;-65
2022/03/18 02:40:49;;;;;;;10.30;6.03;;;4.20;99.90;;;;;;5078416;28;20033;-64
2022/03/18 02:43:15;;;;;;;14.10;7.20;;;4.20;99.90;;;;;;5061422;28;20036;-65
2022/03/18 02:45:41;;;;;;;13.27;6.63;;;4.20;99.90;;;;;;5078717;28;20135;-65
2022/03/18 02:48:06;;;;;;;12.52;6.32;;;4.20;99.90;;;;;;5077903;28;20040;-65
2022/03/18 02:50:33;;;;;;;9.75;6.60;;;4.20;99.90;;;;;;5078768;28;20032;-65
2022/03/18 02:52:59;;;;;;;12.32;6.65;;;4.20;99.90;;;;;;5079004;28;20040;-64
2022/03/18 02:55:26;;;;;;;13.27;6.70;;;4.10;99.90;;;;;;5078630;28;20062;-65
2022/03/18 02:57:52;;;;;;;13.10;6.43;;;4.20;99.90;;;;;;5078884;28;20047;-64
2022/03/18 03:00:18;;;;;;;12.90;6.53;;;4.20;99.90;;;;;;5077710;28;20304;-62
2022/03/18 03:02:43;;;;;;;13.00;6.63;;;4.10;99.90;;;;;;5078364;28;20028;-63
2022/03/18 03:08:00;;;;;;;14.25;6.50;;;4.20;99.90;;;;;;5078719;28;20389;-64
2022/03/18 03:10:30;;;;;;;10.45;6.70;;;4.20;99.90;;;;;;5077591;28;20055;-64
2022/03/18 03:12:59;;;;;;;10.25;6.38;;;4.10;99.90;;;;;;5078301;28;20112;-64
2022/03/18 03:15:25;;;;;;;13.73;6.47;;;4.10;99.90;;;;;;5078533;28;20300;-65
2022/03/18 03:17:51;;;;;;;16.02;6.97;;;4.10;99.90;;;;;;5077820;28;20037;-64
2022/03/18 03:20:17;;;;;;;15.90;6.85;;;4.10;99.90;;;;;;5078115;28;20032;-65
2022/03/18 03:22:43;;;;;;;16.40;7.07;;;4.10;99.90;;;;;;5077409;28;20036;-64
2022/03/18 03:25:09;;;;;;;13.27;6.75;;;4.00;99.90;;;;;;5077929;28;20032;-64
2022/03/18 03:27:35;;;;;;;11.25;6.80;;;3.90;99.90;;;;;;5078391;28;20043;-64
2022/03/18 03:30:04;;;;;;;10.85;6.97;;;3.90;99.90;;;;;;5077897;28;20111;-64
2022/03/18 03:32:30;;;;;;;10.02;6.47;;;3.90;99.90;;;;;;5077235;28;20020;-64
2022/03/18 03:34:57;;;;;;;10.38;7.00;;;3.90;99.90;;;;;;5077882;28;20028;-65
2022/03/18 03:37:25;;;;;;;12.18;6.65;;;3.90;99.90;;;;;;5077780;28;20051;-65
2022/03/18 03:39:50;;;;;;;15.52;7.30;;;3.90;99.90;;;;;;5077565;28;20064;-65
2022/03/18 03:42:17;;;;;;;15.07;7.25;;;3.90;99.90;;;;;;5078044;28;20036;-64
2022/03/18 03:44:43;;;;;;;12.95;7.13;;;4.00;99.90;;;;;;5060140;28;20127;-64
2022/03/18 03:47:09;;;;;;;13.90;7.63;;;4.00;99.90;;;;;;5060095;28;20484;-64
2022/03/18 03:49:35;;;;;;;15.05;7.47;;;4.00;99.90;;;;;;5077492;28;20036;-64
2022/03/18 03:52:01;;;;;;;14.70;7.35;;;4.00;99.90;;;;;;5077538;28;20278;-64
2022/03/18 03:54:27;;;;;;;13.02;7.25;;;3.90;99.90;;;;;;5077997;28;20024;-65
2022/03/18 03:56:56;;;;;;;13.85;7.28;;;3.80;99.90;;;;;;5077454;28;20047;-65
2022/03/18 03:59:22;;;;;;;10.40;7.00;;;3.80;99.90;;;;;;5076650;28;20024;-64
2022/03/18 04:01:48;;;;;;;12.65;6.55;;;3.80;99.90;;;;;;5076506;28;20016;-65
2022/03/18 04:04:14;;;;;;;14.30;6.85;;;3.80;99.90;;;;;;5076684;28;20300;-65
2022/03/18 04:06:40;;;;;;;12.40;7.05;;;3.80;99.90;;;;;;5077294;28;20032;-64
2022/03/18 04:09:06;;;;;;;13.20;7.18;;;3.90;99.90;;;;;;5077189;28;20028;-64
2022/03/18 04:11:31;;;;;;;13.68;7.13;;;3.90;99.90;;;;;;5076475;28;20028;-64
2022/03/18 04:13:57;;;;;;;10.82;6.68;;;3.90;99.90;;;;;;5076444;28;20047;-64
2022/03/18 04:16:23;;;;;;;14.68;7.53;;;4.00;99.90;;;;;;5077155;28;20028;-65
2022/03/18 04:18:49;;;;;;;14.95;7.47;;;3.90;99.90;;;;;;5076731;28;20051;-64
2022/03/18 04:21:15;;;;;;;12.10;7.15;;;3.80;99.90;;;;;;5077039;28;20029;-64
2022/03/18 04:23:44;;;;;;;13.75;7.38;;;3.70;99.90;;;;;;5059494;28;20082;-64
2022/03/18 04:26:09;;;;;;;14.82;6.60;;;3.70;99.90;;;;;;5076813;28;20036;-64
2022/03/18 04:28:35;;;;;;;14.52;7.75;;;3.80;99.90;;;;;;5076975;28;20039;-64
2022/03/18 04:31:01;;;;;;;14.20;7.47;;;3.70;99.90;;;;;;5076188;28;20028;-64
2022/03/18 04:33:27;;;;;;;13.43;7.60;;;3.70;99.90;;;;;;5076119;28;20036;-64
2022/03/18 04:35:53;;;;;;;14.35;7.25;;;3.70;99.90;;;;;;5059744;28;20039;-64
2022/03/18 04:38:18;;;;;;;14.13;7.78;;;3.70;99.90;;;;;;5076618;28;20032;-64
2022/03/18 04:40:44;;;;;;;12.15;7.63;;;3.70;99.90;;;;;;5076902;28;20025;-64
2022/03/18 04:43:10;;;;;;;15.52;8.05;;;3.70;99.90;;;;;;5077049;28;20024;-64
2022/03/18 04:45:36;;;;;;;12.45;8.15;;;3.70;99.90;;;;;;5075865;28;20136;-65
2022/03/18 04:48:02;;;;;;;17.35;8.68;;;3.70;99.90;;;;;;5076076;28;20422;-65
2022/03/18 04:50:29;;;;;;;15.63;8.20;;;3.60;99.90;;;;;;5076051;28;20036;-64
2022/03/18 04:52:55;;;;;;;16.30;7.95;;;3.60;99.90;;;;;;5075890;28;20044;-64
2022/03/18 04:55:21;;;;;;;17.45;8.23;;;3.60;99.90;;;;;;5076115;28;20407;-65
2022/03/18 04:57:47;;;;;;;13.82;7.63;;;3.60;99.90;;;;;;5076719;28;20040;-65
2022/03/18 05:00:14;;;;;;;14.70;8.52;;;3.60;99.90;;;;;;5075892;28;20089;-65
2022/03/18 05:02:40;;;;;;;13.90;8.50;;;3.60;99.90;;;;;;5076535;28;20036;-65
2022/03/18 05:05:10;;;;;;;14.15;7.65;;;3.60;99.90;;;;;;5076029;28;20051;-62
2022/03/18 05:07:39;;;;;;;13.50;7.97;;;3.60;99.90;;;;;;5075859;28;20057;-63
2022/03/18 05:10:06;;;;;;;11.40;7.95;;;3.60;99.90;;;;;;5060031;28;20032;-62
2022/03/18 05:12:32;;;;;;;15.88;8.45;;;3.50;99.90;;;;;;5075918;28;20103;-63
2022/03/18 05:14:59;;;;;;;13.82;8.18;;;3.50;99.90;;;;;;5075963;28;20020;-63
2022/03/18 05:17:25;;;;;;;14.70;7.40;;;3.50;99.90;;;;;;5076575;28;20040;-63
2022/03/18 05:19:51;;;;;;;13.70;7.70;;;3.50;99.90;;;;;;5076475;28;20032;-63
2022/03/18 05:22:17;;;;;;;19.08;7.95;;;3.60;99.90;;;;;;5075679;28;20356;-63
2022/03/18 05:24:43;;;;;;;19.10;9.15;;;3.60;99.90;;;;;;5077083;28;20029;-63
2022/03/18 05:27:09;;;;;;;16.17;8.23;;;3.60;99.90;;;;;;5076509;28;20058;-63
2022/03/18 05:29:35;;;;;;;16.40;8.48;;;3.50;99.90;;;;;;5060385;28;20048;-63
2022/03/18 05:32:02;;;;;;;14.10;8.55;;;3.50;99.90;;;;;;5079581;28;20033;-63
2022/03/18 05:34:28;;;;;;;19.92;8.40;;;3.50;99.90;;;;;;5080329;28;20028;-62
2022/03/18 05:36:54;;;;;;;20.50;8.80;;;3.50;99.90;;;;;;5079661;28;20067;-62
2022/03/18 05:39:20;;;;;;;13.27;8.57;;;3.50;99.90;;;;;;5079974;28;20076;-63
2022/03/18 05:41:48;;;;;;;14.98;8.40;;;3.50;99.90;;;;;;5079453;28;20032;-63
2022/03/18 05:44:14;;;;;;;14.57;8.68;;;3.60;99.90;;;;;;5079348;28;20079;-63
2022/03/18 05:46:41;;;;;;;12.75;8.23;;;3.50;99.90;;;;;;5079584;28;20056;-63
2022/03/18 05:49:07;;;;;;;16.00;8.23;;;3.50;99.90;;;;;;5062992;28;20053;-63
2022/03/18 05:51:33;;;;;;;15.82;8.88;;;3.40;99.90;;;;;;5079878;28;20032;-62
2022/03/18 05:53:59;;;;;;;17.30;8.80;;;3.50;99.90;;;;;;5079312;28;20024;-62
2022/03/18 05:59:13;;;;;;;16.17;9.07;;;3.50;99.90;;;;;;5079314;28;20101;-62
2022/03/18 06:01:39;;;;;;;14.35;9.02;;;3.40;99.90;;;;;;5079855;28;20060;-61
2022/03/18 06:04:06;;;;;;;15.25;8.25;;;3.50;99.90;;;;;;5079711;28;20067;-63
2022/03/18 06:06:32;;;;;;;16.58;8.50;;;3.40;99.90;;;;;;5079488;28;20353;-66
2022/03/18 06:11:51;;;;;;;16.52;9.45;;;3.50;99.90;;;;;;5079616;28;20329;-63
2022/03/18 06:14:18;;;;;;;;;;;3.50;99.90;;;;;;5063709;28;20040;-63
2022/03/18 06:16:47;;;;;;;18.55;8.98;;;3.50;99.90;;;;;;5078773;28;19919;-62
2022/03/18 06:19:13;;;;;;;19.27;9.82;;;3.50;99.90;;;;;;5079401;28;20032;-63
2022/03/18 06:21:40;;;;;;;18.73;8.80;;;3.50;99.90;;;;;;5061894;28;20032;-65
2022/03/18 06:24:06;;;;;;;12.85;8.27;;;3.50;99.90;;;;;;5079412;28;20037;-63
2022/03/18 06:26:33;;;;;;;15.10;9.10;;;3.50;99.90;;;;;;5079274;28;20102;-63
2022/03/18 06:28:59;;;;;;;21.38;9.30;;;3.70;99.90;;;;;;5061711;28;20025;-64
2022/03/18 06:31:25;;;;;;;17.02;9.55;;;3.80;99.90;;;;;;5078568;28;20107;-63
2022/03/18 06:33:52;;;;;;;16.92;9.45;;;3.90;99.90;;;;;;5079144;28;20158;-63
2022/03/18 06:36:18;;;;;;;17.60;9.13;;;4.00;99.90;;;;;;5079687;28;20021;-63
2022/03/18 06:38:44;;;;;;;20.42;9.30;;;4.00;99.90;;;;;;5078821;28;20119;-62
2022/03/18 06:41:10;;;;;;;19.67;9.48;;;4.10;99.90;;;;;;5078355;28;20174;-63
2022/03/18 06:43:36;;;;;;;19.48;8.85;;;4.30;99.90;;;;;;5078074;28;20024;-63
2022/03/18 06:46:02;;;;;;;22.42;9.15;;;4.20;99.90;;;;;;5078557;28;20108;-62
2022/03/18 06:48:28;;;;;;;14.52;8.57;;;4.20;99.90;;;;;;5061412;28;20028;-62
2022/03/18 06:50:54;;;;;;;19.20;8.82;;;4.30;99.90;;;;;;5079041;28;20295;-62
2022/03/18 06:53:20;;;;;;;17.70;8.60;;;4.40;99.90;;;;;;5078647;28;20036;-61
2022/03/18 06:55:46;;;;;;;23.88;9.55;;;4.40;99.90;;;;;;5078588;28;20424;-62
2022/03/18 06:58:12;;;;;;;54.17;31.63;;;4.50;99.90;;;;;;5078386;28;20060;-61
2022/03/18 07:00:39;;;;;;;40.95;21.50;;;4.60;99.90;;;;;;5078365;28;20063;-61
2022/03/18 07:03:05;;;;;;;17.13;10.45;;;4.70;99.90;;;;;;5078102;28;20029;-61
2022/03/18 07:05:32;;;;;;;15.82;9.23;;;4.90;99.90;;;;;;5077545;28;20094;-60
2022/03/18 07:07:58;;;;;;;17.80;8.50;;;4.90;99.90;;;;;;5077447;28;20079;-60
2022/03/18 07:10:24;;;;;;;16.20;8.57;;;5.00;99.90;;;;;;5078267;28;20391;-61
2022/03/18 07:12:50;;;;;;;14.82;9.25;;;5.20;99.90;;;;;;5077671;28;20028;-60
2022/03/18 07:15:16;;;;;;;16.67;9.60;;;5.30;99.90;;;;;;5077278;28;20024;-60
2022/03/18 07:18:01;;;;;;;13.98;8.73;;;5.40;99.90;;;;;;5077359;28;20090;-59
2022/03/18 07:20:32;;;;;;;13.80;9.32;;;5.60;99.90;;;;;;5077913;28;20363;-59
2022/03/18 07:23:07;;;;;;;15.90;9.35;;;5.70;99.90;;;;;;5077802;28;20024;-61
2022/03/18 07:25:35;;;;;;;16.23;8.10;;;5.80;99.90;;;;;;5076938;28;20388;-60
2022/03/18 07:28:01;;;;;;;16.02;6.95;;;5.80;99.90;;;;;;5077991;28;20035;-59
2022/03/18 07:30:27;;;;;;;15.77;8.27;;;6.30;99.90;;;;;;5060355;28;20029;-59
2022/03/18 07:32:53;;;;;;;11.18;7.53;;;7.50;99.90;;;;;;5076874;28;20052;-59
2022/03/18 07:35:20;;;;;;;12.25;7.25;;;7.20;99.90;;;;;;5077632;28;20292;-59
2022/03/18 07:37:47;;;;;;;15.50;7.20;;;7.00;99.90;;;;;;5076846;28;20036;-59
2022/03/18 07:40:14;;;;;;;11.85;7.13;;;6.90;99.90;;;;;;5076788;28;20139;-59
2022/03/18 07:42:59;;;;;;;15.38;7.25;;;6.90;99.90;;;;;;5077520;28;20067;-59
2022/03/18 07:45:29;;;;;;;12.52;7.47;;;6.80;99.90;;;;;;5060099;28;20093;-60
2022/03/18 07:48:02;;;;;;;12.40;7.53;;;7.00;99.90;;;;;;5076778;28;20419;-59
2022/03/18 07:50:31;;;;;;;15.70;7.40;;;6.90;99.90;;;;;;5077622;28;20416;-59
2022/03/18 07:52:59;;;;;;;13.50;6.90;;;6.90;99.90;;;;;;5076736;28;20031;-60
2022/03/18 07:55:27;;;;;;;14.13;7.43;;;7.00;99.90;;;;;;5077617;28;20379;-60
2022/03/18 07:57:57;;;;;;;14.13;6.95;;;7.00;99.90;;;;;;5077834;28;20050;-59
2022/03/18 08:00:23;;;;;;;18.10;7.05;;;7.00;99.90;;;;;;5077409;28;20032;-59
2022/03/18 08:02:50;;;;;;;10.27;6.00;;;7.00;99.90;;;;;;5076600;28;20036;-59
2022/03/18 08:05:16;;;;;;;14.45;6.50;;;6.80;99.90;;;;;;5077265;28;20300;-59
2022/03/18 08:07:42;;;;;;;14.63;6.75;;;6.80;99.90;;;;;;5077272;28;20087;-59
2022/03/18 08:10:09;;;;;;;15.35;6.07;;;7.00;99.90;;;;;;5077571;28;20028;-60
2022/03/18 08:12:38;;;;;;;11.68;6.38;;;7.20;99.90;;;;;;5077254;28;20036;-60
2022/03/18 08:15:06;;;;;;;15.93;6.78;;;7.20;99.90;;;;;;5077249;28;20086;-59
2022/03/18 08:17:33;;;;;;;12.68;5.60;;;7.30;99.90;;;;;;5077151;28;20115;-59
2022/03/18 08:19:59;;;;;;;11.25;6.30;;;7.30;99.90;;;;;;5077162;28;20036;-59
2022/03/18 08:22:26;;;;;;;11.38;5.85;;;7.50;99.90;;;;;;5076316;28;20043;-59
2022/03/18 08:24:52;;;;;;;11.23;5.32;;;7.70;99.90;;;;;;5077061;28;20028;-59
2022/03/18 08:27:19;;;;;;;13.40;5.88;;;7.90;99.90;;;;;;5076333;28;20106;-60
2022/03/18 08:29:46;;;;;;;11.60;5.63;;;8.00;99.90;;;;;;5077413;28;20124;-59
2022/03/18 08:32:15;;;;;;;12.65;5.22;;;8.10;99.90;;;;;;5077028;28;20033;-58
2022/03/18 08:34:41;;;;;;;8.88;5.25;;;8.10;99.90;;;;;;5077015;28;20068;-59
2022/03/18 08:37:08;;;;;;;11.82;4.90;;;8.10;99.90;;;;;;5076388;28;20433;-59
2022/03/18 08:39:38;;;;;;;9.43;5.03;;;8.20;99.90;;;;;;5059542;28;20045;-59
2022/03/18 08:42:04;;;;;;;11.23;4.90;;;8.30;99.90;;;;;;5076659;28;20350;-60
2022/03/18 08:44:31;;;;;;;11.70;5.18;;;8.30;99.90;;;;;;5076115;28;20411;-60
2022/03/18 08:46:57;;;;;;;12.23;5.18;;;8.40;99.90;;;;;;5076141;28;20392;-60
2022/03/18 08:49:23;;;;;;;10.05;4.82;;;8.40;99.90;;;;;;5076110;28;20036;-60
2022/03/18 08:51:49;;;;;;;7.15;4.63;;;8.60;99.90;;;;;;5076092;28;20384;-60
2022/03/18 08:54:15;;;;;;;10.82;4.95;;;8.70;99.90;;;;;;5076709;28;20025;-60
2022/03/18 08:56:41;;;;;;;9.25;4.60;;;8.90;99.90;;;;;;5076060;28;20047;-59
2022/03/18 08:59:06;;;;;;;10.95;5.07;;;8.90;99.90;;;;;;5075887;28;20455;-59
2022/03/18 09:01:37;;;;;;;10.10;4.93;;;9.10;99.90;;;;;;5059412;28;20032;-59
2022/03/18 09:04:04;;;;;;;8.00;4.38;;;9.30;99.90;;;;;;5078893;28;20028;-60
2022/03/18 09:06:30;;;;;;;9.55;4.03;;;9.40;99.90;;;;;;5080615;28;20032;-60
2022/03/18 09:09:02;;;;;;;8.32;4.72;;;9.60;99.90;;;;;;5079860;28;20295;-59
2022/03/18 09:11:29;;;;;;;9.43;4.10;;;9.60;99.90;;;;;;5081232;28;20034;-60
2022/03/18 09:13:54;;;;;;;15.23;5.22;;;9.90;99.90;;;;;;5080465;28;20029;-59
2022/03/18 09:16:20;;;;;;;11.93;5.05;;;9.90;99.90;;;;;;5079750;28;20043;-59
2022/03/18 09:18:46;;;;;;;9.32;4.97;;;10.10;99.90;;;;;;5080357;28;20028;-59
2022/03/18 09:21:13;;;;;;;6.60;4.20;;;10.10;99.90;;;;;;5062983;28;20029;-59
2022/03/18 09:23:41;;;;;;;9.02;4.22;;;10.40;99.90;;;;;;5079606;28;20033;-60
2022/03/18 09:26:07;;;;;;;8.65;3.53;;;10.40;99.90;;;;;;5080166;28;20101;-60
2022/03/18 09:28:33;;;;;;;8.90;3.47;;;10.50;99.90;;;;;;5080229;28;20035;-59
2022/03/18 09:30:59;;;;;;;8.88;4.30;;;10.60;99.90;;;;;;5079506;28;20119;-59
2022/03/18 09:33:25;;;;;;;8.55;3.67;;;10.60;99.90;;;;;;5080241;28;20128;-60
2022/03/18 09:35:51;;;;;;;14.27;4.07;;;10.80;99.90;;;;;;5080093;28;20123;-59
2022/03/18 09:38:17;;;;;;;9.77;3.67;;;11.00;99.90;;;;;;5079830;28;20028;-59
2022/03/18 09:40:43;;;;;;;9.57;3.40;;;11.00;99.90;;;;;;5080307;28;20036;-58
2022/03/18 09:43:10;;;;;;;6.82;3.65;;;11.20;99.90;;;;;;5079924;28;20075;-59
2022/03/18 09:45:37;;;;;;;7.20;3.53;;;11.30;99.90;;;;;;5079076;28;20355;-59
2022/03/18 09:48:06;;;;;;;5.97;2.92;;;11.40;99.90;;;;;;5062626;28;20040;-59
2022/03/18 09:50:33;;;;;;;6.13;3.13;;;11.30;99.90;;;;;;5079829;28;20111;-59
2022/03/18 09:52:59;;;;;;;5.38;3.10;;;11.40;99.90;;;;;;5079843;28;20056;-59
2022/03/18 09:55:26;;;;;;;4.43;2.80;;;11.50;99.90;;;;;;5079615;28;20107;-59
2022/03/18 09:57:53;;;;;;;5.88;2.92;;;11.60;99.90;;;;;;5079296;28;20032;-59
2022/03/18 10:00:19;;;;;;;7.60;3.47;;;11.50;99.90;;;;;;5079636;28;20040;-59
2022/03/18 10:02:44;;;;;;;7.55;3.03;;;11.70;99.90;;;;;;5080001;28;20036;-62
2022/03/18 10:05:16;;;;;;;7.75;3.03;;;11.70;99.90;;;;;;5079776;28;20384;-59
2022/03/18 10:08:02;;;;;;;7.13;2.63;;;11.90;99.90;;;;;;5078760;28;20024;-58
2022/03/18 10:10:28;;;;;;;4.60;2.03;;;11.90;99.90;;;;;;5078558;28;20287;-58
2022/03/18 10:12:57;;;;;;;6.60;2.20;;;12.10;99.90;;;;;;5079416;28;20028;-59
2022/03/18 10:15:28;;;;;;;3.88;1.88;;;12.40;99.90;;;;;;5078394;28;20127;-58
2022/03/18 10:17:56;;;;;;;9.13;2.10;;;12.60;99.90;;;;;;5078589;28;20086;-59
2022/03/18 10:20:35;;;;;;;3.67;1.88;;;12.70;99.90;;;;;;5079268;28;20028;-58
2022/03/18 10:23:15;;;;;;;4.03;1.90;;;12.80;99.90;;;;;;5079447;28;20418;-58
2022/03/18 10:25:50;;;;;;;4.55;1.90;;;12.30;99.90;;;;;;5079170;28;20277;-59
2022/03/18 10:28:32;;;;;;;3.88;2.00;;;12.50;99.90;;;;;;5079169;28;20037;-60
2022/03/18 10:31:15;;;;;;;3.47;1.88;;;12.80;99.90;;;;;;5078318;28;20040;-58
2022/03/18 10:37:04;;;;;;;5.43;2.00;;;13.60;99.90;;;;;;5078234;28;20059;-59
2022/03/18 10:39:41;;;;;;;5.78;2.17;;;14.60;99.90;;;;;;5063510;28;20048;-59
2022/03/18 10:42:11;;;;;;;5.03;2.13;;;15.30;99.90;;;;;;5079000;28;20369;-59
2022/03/18 10:44:56;;;;;;;4.45;1.88;;;16.10;99.90;;;;;;5078029;28;20043;-59
2022/03/18 10:47:35;;;;;;;4.90;2.47;;;17.00;99.90;;;;;;5079325;28;20048;-59
2022/03/18 10:50:10;;;;;;;4.40;1.90;;;17.00;99.90;;;;;;5078745;28;20318;-59
2022/03/18 10:52:59;;;;;;;3.78;2.05;;;17.50;99.90;;;;;;5078632;28;20025;-59
2022/03/18 10:55:30;;;;;;;3.50;1.98;;;18.20;99.90;;;;;;5078612;28;20024;-59
2022/03/18 10:58:01;;;;;;;5.78;2.17;;;18.20;99.90;;;;;;5078891;28;20328;-58
2022/03/18 11:00:30;;;;;;;7.10;2.55;;;17.30;99.90;;;;;;5077888;28;20040;-59
2022/03/18 11:02:58;;;;;;;5.18;2.10;;;17.40;99.90;;;;;;5078499;28;20031;-59
2022/03/18 11:05:35;;;;;;;4.85;2.05;;;17.80;99.90;;;;;;5077689;28;20032;-59
2022/03/18 11:08:03;;;;;;;3.70;2.15;;;18.40;99.90;;;;;;5078948;28;20297;-59
2022/03/18 11:13:15;;;;;;;4.85;2.40;;;17.50;99.90;;;;;;5077940;28;20103;-60
2022/03/18 11:15:45;;;;;;;6.35;2.47;;;18.00;99.90;;;;;;5061608;28;20037;-59
2022/03/18 11:18:13;;;;;;;5.55;2.30;;;18.80;99.90;;;;;;5078309;28;20043;-60
2022/03/18 11:20:43;;;;;;;5.45;2.30;;;18.80;99.50;;;;;;5078425;28;20380;-60
2022/03/18 11:23:15;;;;;;;6.93;2.53;;;19.60;99.00;;;;;;5078306;28;20044;-60
2022/03/18 11:25:42;;;;;;;4.75;2.35;;;19.70;97.80;;;;;;5078001;28;20032;-59
2022/03/18 11:28:14;;;;;;;7.68;2.08;;;18.70;98.80;;;;;;5077983;28;20143;-59
2022/03/18 11:30:41;;;;;;;6.45;2.35;;;19.20;98.50;;;;;;5078045;28;20414;-60
2022/03/18 11:33:10;;;;;;;4.97;2.33;;;19.90;96.80;;;;;;5061144;28;20052;-60
2022/03/18 11:35:48;;;;;;;4.72;2.10;;;20.30;95.80;;;;;;5077874;28;20086;-60
2022/03/18 11:38:25;;;;;;;4.35;2.22;;;20.90;94.70;;;;;;5076882;28;20055;-63
2022/03/18 11:41:05;;;;;;;6.15;2.05;;;20.90;93.70;;;;;;5077707;28;20111;-59
2022/03/18 11:43:39;;;;;;;3.65;2.05;;;21.70;92.70;;;;;;5060333;28;20396;-59
2022/03/18 11:46:16;;;;;;;4.32;2.10;;;21.60;91.60;;;;;;5077633;28;20078;-59
2022/03/18 11:48:57;;;;;;;3.75;2.10;;;21.20;91.40;;;;;;5077615;28;20036;-59
2022/03/18 11:51:26;;;;;;;4.45;2.00;;;21.40;91.10;;;;;;5077594;28;20082;-59
2022/03/18 11:53:56;;;;;;;5.53;2.42;;;21.90;91.00;;;;;;5077699;28;20032;-59
2022/03/18 11:56:50;;;;;;;3.35;1.75;;;21.40;90.40;;;;;;5076819;28;20037;-60
2022/03/18 11:59:25;;;;;;;5.55;1.77;;;21.70;90.30;;;;;;5076904;28;20043;-59
2022/03/18 12:01:52;;;;;;;5.07;2.00;;;22.00;86.70;;;;;;5077461;28;20039;-60
2022/03/18 12:04:33;;;;;;;3.97;1.88;;;22.40;86.00;;;;;;5076564;28;20032;-60
2022/03/18 12:07:14;;;;;;;4.70;1.90;;;22.90;86.20;;;;;;5077297;28;20032;-59
2022/03/18 12:10:10;;;;;;;3.50;2.20;;;23.30;83.70;;;;;;5077143;28;20024;-59
2022/03/18 12:12:42;;;;;;;6.40;2.35;;;22.50;84.40;;;;;;5076358;28;20190;-59
2022/03/18 12:15:08;;;;;;;3.30;2.00;;;21.90;84.60;;;;;;5076730;28;20055;-59
2022/03/18 12:17:42;;;;;;;6.13;2.40;;;21.50;85.70;;;;;;5076736;28;20063;-59
2022/03/18 12:20:10;;;;;;;3.63;2.13;;;21.70;86.90;;;;;;5077001;28;20043;-59
2022/03/18 12:22:42;;;;;;;4.50;2.22;;;22.10;83.50;;;;;;5076154;28;20408;-59
2022/03/18 12:25:08;;;;;;;3.65;1.73;;;23.40;82.90;;;;;;5076578;28;20036;-59
2022/03/18 12:27:39;;;;;;;4.60;2.00;;;24.60;79.00;;;;;;5076310;28;20338;-59
2022/03/18 12:30:07;;;;;;;3.85;1.55;;;25.20;75.60;;;;;;5076226;28;20024;-59
2022/03/18 12:32:40;;;;;;;4.22;2.22;;;25.30;75.00;;;;;;5076964;28;20103;-59
2022/03/18 12:35:07;;;;;;;5.35;2.67;;;25.00;73.50;;;;;;5076975;28;20039;-59
2022/03/18 12:37:34;;;;;;;4.72;2.30;;;25.50;72.50;;;;;;5076661;28;20055;-59
2022/03/18 12:40:01;;;;;;;4.95;2.58;;;25.60;70.60;;;;;;5076666;28;20380;-59
2022/03/18 12:42:27;;;;;;;5.55;2.35;;;23.70;72.90;;;;;;5076837;28;20041;-59
2022/03/18 12:44:59;;;;;;;3.45;1.80;;;24.50;72.60;;;;;;5076874;28;20093;-63
2022/03/18 12:47:31;;;;;;;6.82;2.50;;;24.60;70.20;;;;;;5076865;28;20040;-59
2022/03/18 12:50:00;;;;;;;4.50;1.90;;;23.90;71.00;;;;;;5076458;28;20020;-60
2022/03/18 12:52:26;;;;;;;3.70;1.95;;;23.60;72.40;;;;;;5076672;28;20029;-58
2022/03/18 12:55:08;;;;;;;2.88;1.75;;;23.30;71.80;;;;;;5077207;28;20025;-59
2022/03/18 12:57:37;;;;;;;4.88;1.90;;;24.10;71.00;;;;;;5076676;28;20040;-60
2022/03/18 13:00:11;;;;;;;5.15;1.88;;;24.80;69.70;;;;;;5076664;28;20396;-58
2022/03/18 13:02:38;;;;;;;2.90;1.70;;;25.20;69.40;;;;;;5075991;28;20033;-59
2022/03/18 13:05:05;;;;;;;5.53;2.00;;;25.90;67.80;;;;;;5076401;28;20037;-60
2022/03/18 13:07:31;;;;;;;4.28;2.03;;;26.90;65.50;;;;;;5076515;28;20032;-61
2022/03/18 13:09:57;;;;;;;5.80;2.15;;;27.10;63.50;;;;;;5076309;28;20301;-61
2022/03/18 13:12:31;;;;;;;4.50;1.88;;;26.50;63.50;;;;;;5076622;28;20024;-61
2022/03/18 13:14:58;;;;;;;3.95;2.00;;;27.00;62.70;;;;;;5076520;28;20129;-61